createdAt,value
2019-01-13T00:00:11.739Z,3.03
2019-01-13T00:02:40.316Z,6.43
2019-01-13T00:05:09.140Z,5.87
2019-01-13T00:07:37.551Z,4.70
2019-01-13T00:10:07.199Z,3.70
2019-01-13T00:12:35.886Z,4.50
2019-01-13T00:15:07.353Z,4.97
2019-01-13T00:17:36.665Z,4.90
2019-01-13T00:20:10.550Z,6.30
2019-01-13T00:22:39.042Z,3.80
2019-01-13T00:25:07.589Z,4.33
2019-01-13T00:27:36.013Z,3.50
2019-01-13T00:30:10.460Z,2.47
2019-01-13T00:32:38.910Z,2.17
2019-01-13T00:35:07.618Z,2.17
2019-01-13T00:37:36.019Z,2.90
2019-01-13T00:40:07.744Z,2.60
2019-01-13T00:42:36.150Z,6.40
2019-01-13T00:45:06.613Z,2.70
2019-01-13T00:47:35.026Z,1.90
2019-01-13T00:50:05.242Z,1.77
2019-01-13T00:52:33.669Z,2.43
2019-01-13T00:55:02.133Z,1.67
2019-01-13T00:57:30.594Z,3.00
2019-01-13T00:59:59.045Z,2.00
2019-01-13T01:02:27.456Z,2.30
2019-01-13T01:04:56.428Z,2.30
2019-01-13T01:07:25.005Z,2.53
2019-01-13T01:09:53.481Z,3.50
2019-01-13T01:12:21.913Z,3.20
2019-01-13T01:14:50.336Z,3.83
2019-01-13T01:17:18.893Z,4.93
2019-01-13T01:23:27.970Z,6.30
2019-01-13T01:25:56.389Z,4.87
2019-01-13T01:28:25.140Z,5.03
2019-01-13T01:30:53.559Z,4.17
2019-01-13T01:33:25.976Z,15.03
2019-01-13T01:35:52.150Z,115.30
2019-01-13T01:38:20.553Z,21.00
2019-01-13T01:40:48.985Z,81.10
2019-01-13T01:43:17.408Z,107.07
2019-01-13T01:45:45.850Z,3.93
2019-01-13T01:48:14.271Z,3.00
2019-01-13T01:50:42.751Z,3.50
2019-01-13T01:53:11.159Z,3.47
2019-01-13T01:55:39.589Z,3.23
2019-01-13T01:58:08.178Z,4.40
2019-01-13T02:00:40.523Z,4.70
2019-01-13T02:03:06.794Z,4.70
2019-01-13T02:05:35.241Z,6.27
2019-01-13T02:08:03.772Z,4.37
2019-01-13T02:10:32.262Z,5.50
2019-01-13T02:13:00.680Z,6.37
2019-01-13T02:15:29.177Z,5.57
2019-01-13T02:17:57.584Z,5.77
2019-01-13T02:20:26.253Z,5.43
2019-01-13T02:22:54.662Z,6.67
2019-01-13T02:25:25.028Z,6.00
2019-01-13T02:27:53.517Z,6.43
2019-01-13T02:30:23.788Z,6.97
2019-01-13T02:32:52.359Z,5.60
2019-01-13T02:35:20.795Z,5.70
2019-01-13T02:37:49.286Z,5.43
2019-01-13T02:40:19.649Z,5.40
2019-01-13T02:42:48.125Z,8.10
2019-01-13T02:45:22.162Z,7.23
2019-01-13T02:47:50.568Z,4.80
2019-01-13T02:50:18.992Z,3.87
2019-01-13T02:52:47.479Z,3.50
2019-01-13T02:55:16.706Z,3.73
2019-01-13T02:57:45.121Z,3.40
2019-01-13T03:00:16.645Z,3.30
2019-01-13T03:02:45.124Z,3.40
2019-01-13T03:05:14.594Z,3.00
2019-01-13T03:07:43.002Z,3.50
2019-01-13T03:10:14.657Z,3.97
2019-01-13T03:12:43.071Z,5.40
2019-01-13T03:15:19.276Z,5.13
2019-01-13T03:17:44.541Z,6.57
2019-01-13T03:20:13.686Z,7.00
2019-01-13T03:22:42.183Z,8.50
2019-01-13T03:25:13.006Z,8.13
2019-01-13T03:27:41.431Z,13.00
2019-01-13T03:30:21.521Z,9.23
2019-01-13T03:32:50.121Z,7.00
2019-01-13T03:35:18.984Z,10.37
2019-01-13T03:37:49.064Z,8.10
2019-01-13T03:40:19.524Z,7.70
2019-01-13T03:42:48.322Z,8.37
2019-01-13T03:45:16.792Z,8.00
2019-01-13T03:47:45.974Z,7.50
2019-01-13T03:50:18.981Z,10.30
2019-01-13T03:52:52.869Z,8.60
2019-01-13T03:55:19.709Z,9.43
2019-01-13T03:57:48.199Z,10.13
2019-01-13T04:00:19.106Z,8.73
2019-01-13T04:02:47.602Z,7.97
2019-01-13T04:05:17.873Z,7.80
2019-01-13T04:07:46.288Z,10.80
2019-01-13T04:10:16.962Z,7.33
2019-01-13T04:12:45.528Z,7.27
2019-01-13T04:15:28.813Z,7.10
2019-01-13T04:17:58.092Z,6.30
2019-01-13T04:20:26.503Z,6.90
2019-01-13T04:22:54.945Z,6.67
2019-01-13T04:25:23.359Z,6.10
2019-01-13T04:27:51.771Z,5.67
2019-01-13T04:30:20.184Z,6.87
2019-01-13T04:32:48.593Z,9.57
2019-01-13T04:35:17.005Z,4.30
2019-01-13T04:37:45.429Z,5.27
2019-01-13T04:40:13.852Z,4.07
2019-01-13T04:42:42.259Z,4.57
2019-01-13T04:45:11.134Z,4.23
2019-01-13T04:47:39.541Z,4.93
2019-01-13T04:50:14.978Z,4.87
2019-01-13T04:52:43.397Z,8.57
2019-01-13T04:55:12.052Z,5.03
2019-01-13T04:57:40.528Z,5.70
2019-01-13T05:00:17.897Z,8.07
2019-01-13T05:02:46.485Z,4.90
2019-01-13T05:05:14.902Z,4.60
2019-01-13T05:07:43.310Z,5.47
2019-01-13T05:10:14.826Z,5.20
2019-01-13T05:12:43.253Z,4.03
2019-01-13T05:15:11.743Z,4.43
2019-01-13T05:17:40.165Z,4.33
2019-01-13T05:20:11.413Z,4.80
2019-01-13T05:22:39.822Z,5.10
2019-01-13T05:25:08.710Z,7.43
2019-01-13T05:27:37.169Z,5.60
2019-01-13T05:30:11.336Z,5.93
2019-01-13T05:32:39.752Z,4.70
2019-01-13T05:35:08.235Z,5.20
2019-01-13T05:37:36.641Z,4.77
2019-01-13T05:40:08.071Z,8.27
2019-01-13T05:42:36.558Z,9.60
2019-01-13T05:45:08.050Z,7.10
2019-01-13T05:47:36.466Z,4.27
2019-01-13T05:50:07.409Z,3.93
2019-01-13T05:52:36.597Z,4.30
2019-01-13T05:55:06.557Z,3.60
2019-01-13T05:57:34.985Z,4.10
2019-01-13T06:00:05.202Z,3.90
2019-01-13T06:02:33.609Z,3.80
2019-01-13T06:05:02.031Z,3.57
2019-01-13T06:07:30.480Z,5.03
2019-01-13T06:09:58.897Z,10.77
2019-01-13T06:12:27.306Z,4.87
2019-01-13T06:14:55.725Z,4.93
2019-01-13T06:17:24.155Z,3.70
2019-01-13T06:19:52.570Z,5.73
2019-01-13T06:22:20.973Z,9.03
2019-01-13T06:24:49.377Z,5.57
2019-01-13T06:27:17.790Z,7.27
2019-01-13T06:29:46.197Z,2.90
2019-01-13T06:32:14.627Z,3.27
2019-01-13T06:34:43.029Z,3.10
2019-01-13T06:37:11.461Z,2.20
2019-01-13T06:39:39.870Z,2.10
2019-01-13T06:42:08.280Z,1.90
2019-01-13T06:44:36.941Z,2.00
2019-01-13T06:47:05.354Z,2.60
2019-01-13T06:49:33.844Z,1.30
2019-01-13T06:52:02.257Z,2.80
2019-01-13T06:54:30.706Z,2.87
2019-01-13T06:56:59.114Z,1.33
2019-01-13T06:59:27.529Z,0.77
2019-01-13T07:01:59.734Z,9.47
2019-01-13T07:04:26.187Z,0.93
2019-01-13T07:06:54.614Z,2.90
2019-01-13T07:09:23.022Z,0.50
2019-01-13T07:11:51.450Z,0.70
2019-01-13T07:14:19.859Z,0.57
2019-01-13T07:16:48.272Z,0.70
2019-01-13T07:19:16.689Z,0.50
2019-01-13T07:21:45.093Z,0.50
2019-01-13T07:24:13.753Z,0.70
2019-01-13T07:26:42.160Z,0.60
2019-01-13T07:29:10.585Z,0.50
2019-01-13T07:31:38.998Z,0.50
2019-01-13T07:34:07.428Z,0.60
2019-01-13T07:36:35.841Z,1.90
2019-01-13T07:39:06.772Z,0.67
2019-01-13T07:41:35.183Z,4.17
2019-01-13T07:44:03.686Z,0.67
2019-01-13T07:46:32.100Z,2.33
2019-01-13T07:49:00.530Z,2.37
2019-01-13T07:51:28.954Z,0.57
2019-01-13T07:53:57.353Z,0.70
2019-01-13T07:56:25.789Z,0.50
2019-01-13T07:58:54.184Z,0.70
2019-01-13T08:01:22.826Z,0.50
2019-01-13T08:03:51.229Z,0.73
2019-01-13T08:06:19.641Z,0.50
2019-01-13T08:08:48.044Z,0.50
2019-01-13T08:11:16.463Z,1.67
2019-01-13T08:13:44.890Z,3.80
2019-01-13T08:16:13.298Z,0.70
2019-01-13T08:18:41.733Z,0.50
2019-01-13T08:21:10.142Z,2.07
2019-01-13T08:23:38.577Z,4.43
2019-01-13T08:26:06.986Z,1.90
2019-01-13T08:28:35.418Z,3.00
2019-01-13T08:31:03.989Z,0.90
2019-01-13T08:33:32.421Z,0.47
2019-01-13T08:36:00.835Z,0.40
2019-01-13T08:38:29.260Z,0.70
2019-01-13T08:40:57.671Z,0.60
2019-01-13T08:43:26.104Z,0.70
2019-01-13T08:45:54.514Z,0.77
2019-01-13T08:48:24.577Z,0.60
2019-01-13T08:50:53.000Z,0.60
2019-01-13T08:53:21.430Z,1.90
2019-01-13T08:55:49.844Z,3.13
2019-01-13T08:58:18.287Z,3.87
2019-01-13T09:00:46.778Z,1.53
2019-01-13T09:03:15.207Z,1.30
2019-01-13T09:05:43.617Z,1.90
2019-01-13T09:08:12.049Z,1.30
2019-01-13T09:10:40.463Z,3.93
2019-01-13T09:13:08.923Z,4.67
2019-01-13T09:15:37.346Z,1.13
2019-01-13T09:18:05.828Z,0.60
2019-01-13T09:20:34.504Z,0.50
2019-01-13T09:23:02.929Z,0.60
2019-01-13T09:25:31.522Z,0.70
2019-01-13T09:28:00.003Z,0.70
2019-01-13T09:30:29.449Z,0.60
2019-01-13T09:32:58.096Z,0.73
2019-01-13T09:35:26.750Z,1.30
2019-01-13T09:37:55.163Z,1.00
2019-01-13T09:40:26.181Z,1.13
2019-01-13T09:42:55.125Z,0.70
2019-01-13T09:45:24.064Z,4.43
2019-01-13T09:47:52.487Z,2.97
2019-01-13T09:50:23.238Z,1.80
2019-01-13T09:52:51.722Z,4.30
2019-01-13T09:55:21.974Z,3.60
2019-01-13T09:57:50.401Z,0.73
2019-01-13T10:00:27.498Z,0.47
2019-01-13T10:02:55.901Z,0.50
2019-01-13T10:05:24.314Z,0.50
2019-01-13T10:07:52.716Z,0.50
2019-01-13T10:10:21.139Z,0.50
2019-01-13T10:12:49.552Z,0.70
2019-01-13T10:15:20.574Z,538.37
2019-01-13T10:17:49.069Z,999.90
2019-01-13T10:20:17.501Z,999.90
2019-01-13T10:22:45.922Z,999.90
2019-01-13T10:25:14.484Z,8.90
2019-01-13T10:27:42.962Z,1.23
2019-01-13T10:30:20.459Z,2.70
2019-01-13T10:32:54.685Z,4.50
2019-01-13T10:35:19.332Z,3.93
2019-01-13T10:37:47.738Z,0.80
2019-01-13T10:40:18.395Z,0.67
2019-01-13T10:42:47.620Z,0.80
2019-01-13T10:45:17.474Z,0.50
2019-01-13T10:47:45.956Z,0.57
2019-01-13T10:50:17.767Z,0.63
2019-01-13T10:52:46.261Z,0.60
2019-01-13T10:55:15.879Z,0.50
2019-01-13T10:57:44.308Z,1.00
2019-01-13T11:00:24.329Z,1.60
2019-01-13T11:02:52.827Z,1.80
2019-01-13T11:05:21.245Z,0.80
2019-01-13T11:07:49.749Z,1.43
2019-01-13T11:10:18.243Z,1.10
2019-01-13T11:12:46.654Z,2.37
2019-01-13T11:15:21.479Z,1.20
2019-01-13T11:17:46.950Z,1.60
2019-01-13T11:20:21.121Z,0.70
2019-01-13T11:22:49.625Z,0.73
2019-01-13T11:25:18.101Z,0.77
2019-01-13T11:27:46.623Z,0.50
2019-01-13T11:30:17.578Z,0.77
2019-01-13T11:32:45.995Z,0.90
2019-01-13T11:35:14.947Z,0.70
2019-01-13T11:37:43.361Z,0.60
2019-01-13T11:40:14.853Z,0.80
2019-01-13T11:42:43.250Z,1.60
2019-01-13T11:45:11.829Z,2.10
2019-01-13T11:47:40.237Z,1.77
2019-01-13T11:50:14.490Z,1.87
2019-01-13T11:52:42.901Z,0.60
2019-01-13T11:55:13.656Z,4.17
2019-01-13T11:57:42.137Z,2.80
2019-01-13T12:00:21.788Z,0.80
2019-01-13T12:02:50.206Z,0.70
2019-01-13T12:05:18.954Z,0.50
2019-01-13T12:07:47.433Z,0.60
2019-01-13T12:10:20.476Z,0.57
2019-01-13T12:12:49.434Z,0.60
2019-01-13T12:15:20.971Z,0.70
2019-01-13T12:17:49.445Z,0.70
2019-01-13T12:20:20.015Z,0.70
2019-01-13T12:22:48.558Z,0.60
2019-01-13T12:25:19.136Z,2.20
2019-01-13T12:27:47.538Z,0.93
2019-01-13T12:30:21.773Z,1.80
2019-01-13T12:32:50.192Z,2.83
2019-01-13T12:35:18.700Z,0.90
2019-01-13T12:37:47.116Z,0.67
2019-01-13T12:40:17.592Z,2.43
2019-01-13T12:42:46.553Z,1.70
2019-01-13T12:45:17.108Z,2.40
2019-01-13T12:47:45.533Z,0.50
2019-01-13T12:50:16.782Z,0.50
2019-01-13T12:52:45.202Z,0.50
2019-01-13T12:55:13.786Z,0.57
2019-01-13T12:57:42.271Z,0.70
2019-01-13T13:00:15.996Z,2.23
2019-01-13T13:02:44.400Z,0.60
2019-01-13T13:05:13.854Z,0.60
2019-01-13T13:07:42.290Z,0.70
2019-01-13T13:10:16.747Z,0.80
2019-01-13T13:12:45.193Z,1.60
2019-01-13T13:15:13.673Z,0.93
2019-01-13T13:17:42.077Z,4.40
2019-01-13T13:20:15.705Z,4.30
2019-01-13T13:22:44.249Z,0.97
2019-01-13T13:25:14.671Z,0.97
2019-01-13T13:27:43.089Z,0.70
2019-01-13T13:30:27.834Z,0.40
2019-01-13T13:32:56.512Z,0.50
2019-01-13T13:35:25.112Z,0.67
2019-01-13T13:37:53.682Z,0.53
2019-01-13T13:40:27.418Z,0.50
2019-01-13T13:42:56.085Z,0.60
2019-01-13T13:45:24.515Z,1.00
2019-01-13T13:47:53.006Z,2.53
2019-01-13T13:50:25.957Z,1.10
2019-01-13T13:52:54.631Z,2.00
2019-01-13T13:55:23.439Z,1.60
2019-01-13T13:57:51.898Z,3.53
2019-01-13T14:00:23.013Z,2.70
2019-01-13T14:02:51.449Z,2.60
2019-01-13T14:05:20.009Z,1.30
2019-01-13T14:07:48.969Z,2.00
2019-01-13T14:10:20.189Z,0.80
2019-01-13T14:12:48.607Z,0.70
2019-01-13T14:15:17.106Z,0.60
2019-01-13T14:17:45.520Z,0.70
2019-01-13T14:20:16.587Z,0.50
2019-01-13T14:22:45.003Z,0.57
2019-01-13T14:25:13.755Z,0.50
2019-01-13T14:27:42.233Z,0.60
2019-01-13T14:30:16.293Z,0.90
2019-01-13T14:32:44.772Z,3.77
2019-01-13T14:35:13.442Z,0.77
2019-01-13T14:37:41.843Z,1.47
2019-01-13T14:40:18.358Z,1.40
2019-01-13T14:42:46.785Z,0.80
2019-01-13T14:45:17.237Z,1.90
2019-01-13T14:47:45.720Z,1.70
2019-01-13T14:50:16.745Z,0.90
2019-01-13T14:52:46.862Z,0.50
2019-01-13T14:55:15.726Z,0.90
2019-01-13T14:57:44.161Z,0.60
2019-01-13T15:00:15.999Z,0.60
2019-01-13T15:02:44.433Z,0.80
2019-01-13T15:05:13.883Z,0.70
2019-01-13T15:07:43.169Z,0.50
2019-01-13T15:10:13.820Z,0.50
2019-01-13T15:12:42.294Z,2.83
2019-01-13T15:15:12.744Z,1.50
2019-01-13T15:17:41.166Z,1.27
2019-01-13T15:20:12.401Z,1.70
2019-01-13T15:22:41.003Z,1.93
2019-01-13T15:25:12.548Z,1.37
2019-01-13T15:27:41.276Z,1.50
2019-01-13T15:30:12.765Z,45.90
2019-01-13T15:32:41.203Z,2.67
2019-01-13T15:35:09.739Z,0.80
2019-01-13T15:37:38.174Z,0.47
2019-01-13T15:40:14.666Z,0.57
2019-01-13T15:42:43.088Z,0.50
2019-01-13T15:45:13.338Z,0.60
2019-01-13T15:47:41.789Z,0.53
2019-01-13T15:50:13.610Z,0.43
2019-01-13T15:52:42.102Z,0.60
2019-01-13T15:55:10.714Z,2.30
2019-01-13T15:57:39.157Z,1.20
2019-01-13T16:00:16.229Z,2.87
2019-01-13T16:02:44.677Z,2.70
2019-01-13T16:05:13.090Z,0.70
2019-01-13T16:07:41.512Z,1.23
2019-01-13T16:10:12.973Z,28.57
2019-01-13T16:12:41.376Z,1.90
2019-01-13T16:15:11.645Z,1.77
2019-01-13T16:17:40.059Z,1.70
2019-01-13T16:20:20.006Z,0.50
2019-01-13T16:22:48.491Z,0.70
2019-01-13T16:25:16.912Z,0.50
2019-01-13T16:27:45.327Z,0.60
2019-01-13T16:30:20.045Z,0.80
2019-01-13T16:32:48.451Z,1.00
2019-01-13T16:35:16.946Z,0.70
2019-01-13T16:37:45.430Z,1.40
2019-01-13T16:40:15.986Z,1.20
2019-01-13T16:42:44.398Z,1.10
2019-01-13T16:45:14.854Z,1.67
2019-01-13T16:47:43.270Z,2.23
2019-01-13T16:50:24.600Z,3.27
2019-01-13T16:52:54.547Z,1.87
2019-01-13T16:55:23.614Z,2.43
2019-01-13T16:57:52.252Z,1.90
2019-01-13T17:00:28.321Z,1.40
2019-01-13T17:02:57.020Z,2.10
2019-01-13T17:05:25.850Z,2.87
2019-01-13T17:07:54.329Z,2.77
2019-01-13T17:10:23.978Z,2.80
2019-01-13T17:12:52.403Z,2.63
2019-01-13T17:15:23.446Z,2.70
2019-01-13T17:17:51.873Z,3.53
2019-01-13T17:20:22.130Z,3.90
2019-01-13T17:22:50.629Z,3.30
2019-01-13T17:25:21.648Z,4.07
2019-01-13T17:27:50.084Z,3.80
2019-01-13T17:30:21.296Z,3.77
2019-01-13T17:32:49.734Z,4.80
2019-01-13T17:35:18.389Z,4.97
2019-01-13T17:37:46.874Z,6.57
2019-01-13T17:40:17.529Z,5.40
2019-01-13T17:42:45.960Z,3.13
2019-01-13T17:45:16.505Z,2.93
2019-01-13T17:47:45.468Z,3.33
2019-01-13T17:50:19.359Z,3.57
2019-01-13T17:52:47.840Z,4.03
2019-01-13T17:55:18.215Z,5.40
2019-01-13T17:57:46.771Z,4.83
2019-01-13T18:00:24.369Z,4.93
2019-01-13T18:02:52.772Z,5.27
2019-01-13T18:05:21.191Z,5.20
2019-01-13T18:07:49.622Z,6.73
2019-01-13T18:10:18.065Z,5.80
2019-01-13T18:12:46.482Z,5.40
2019-01-13T18:15:15.058Z,2.87
2019-01-13T18:17:43.465Z,4.50
2019-01-13T18:20:22.301Z,2.40
2019-01-13T18:22:50.711Z,3.10
2019-01-13T18:25:19.133Z,1.90
2019-01-13T18:27:47.558Z,1.90
2019-01-13T18:30:18.739Z,1.53
2019-01-13T18:32:47.138Z,1.40
2019-01-13T18:35:17.410Z,0.77
2019-01-13T18:37:45.822Z,0.60
2019-01-13T18:40:19.995Z,0.97
2019-01-13T18:42:48.455Z,0.83
2019-01-13T18:45:17.006Z,1.03
2019-01-13T18:47:45.607Z,2.00
2019-01-13T18:50:19.309Z,1.53
2019-01-13T18:53:05.682Z,1.63
2019-01-13T18:55:34.094Z,2.13
2019-01-13T18:58:02.533Z,2.23
2019-01-13T19:00:30.945Z,2.47
2019-01-13T19:02:59.413Z,3.03
2019-01-13T19:05:28.881Z,2.50
2019-01-13T19:07:57.284Z,1.57
2019-01-13T19:10:37.839Z,2.77
2019-01-13T19:13:09.380Z,2.30
2019-01-13T19:15:37.787Z,2.60
2019-01-13T19:18:06.202Z,1.90
2019-01-13T19:20:34.757Z,2.70
2019-01-13T19:23:03.228Z,2.13
2019-01-13T19:25:31.671Z,1.93
2019-01-13T19:28:00.083Z,1.73
2019-01-13T19:30:28.485Z,2.30
2019-01-13T19:32:56.898Z,2.30
2019-01-13T19:35:25.372Z,3.07
2019-01-13T19:37:53.788Z,2.90
2019-01-13T19:40:22.200Z,1.43
2019-01-13T19:42:50.617Z,1.47
2019-01-13T19:45:20.560Z,1.43
2019-01-13T19:47:49.062Z,1.67
2019-01-13T19:50:19.905Z,1.90
2019-01-13T19:52:48.385Z,2.23
2019-01-13T19:55:17.833Z,1.33
2019-01-13T19:57:46.308Z,1.80
2019-01-13T20:00:29.409Z,1.37
2019-01-13T20:02:57.818Z,1.50
2019-01-13T20:05:26.237Z,1.17
2019-01-13T20:07:54.641Z,1.17
2019-01-13T20:10:23.058Z,2.23
2019-01-13T20:12:51.717Z,1.97
2019-01-13T20:15:22.179Z,1.63
2019-01-13T20:17:50.590Z,1.67
2019-01-13T20:20:20.448Z,1.43
2019-01-13T20:22:49.401Z,1.93
2019-01-13T20:25:18.662Z,1.77
2019-01-13T20:27:47.544Z,1.50
2019-01-13T20:30:18.208Z,2.17
2019-01-13T20:32:46.624Z,1.93
2019-01-13T20:35:19.174Z,1.70
2019-01-13T20:37:45.436Z,1.97
2019-01-13T20:40:15.685Z,2.03
2019-01-13T20:42:44.367Z,2.03
2019-01-13T20:45:15.716Z,1.20
2019-01-13T20:47:44.127Z,2.40
2019-01-13T20:50:15.084Z,1.90
2019-01-13T20:52:44.051Z,3.37
2019-01-13T20:55:15.920Z,2.10
2019-01-13T20:57:44.420Z,1.73
2019-01-13T21:00:15.845Z,1.83
2019-01-13T21:02:44.261Z,2.17
2019-01-13T21:05:12.683Z,2.23
2019-01-13T21:07:41.113Z,2.70
2019-01-13T21:10:12.383Z,2.00
2019-01-13T21:12:40.823Z,2.00
2019-01-13T21:15:12.977Z,2.70
2019-01-13T21:17:41.403Z,1.13
2019-01-13T21:20:10.454Z,1.63
2019-01-13T21:22:38.864Z,0.90
2019-01-13T21:25:10.403Z,1.77
2019-01-13T21:27:39.194Z,2.07
2019-01-13T21:30:10.683Z,1.97
2019-01-13T21:32:39.098Z,1.60
2019-01-13T21:35:09.352Z,1.80
2019-01-13T21:37:37.761Z,1.80
2019-01-13T21:40:09.509Z,3.80
2019-01-13T21:42:37.925Z,1.30
2019-01-13T21:45:10.101Z,1.40
2019-01-13T21:47:38.509Z,1.57
2019-01-13T21:50:10.241Z,3.03
2019-01-13T21:52:38.653Z,1.63
2019-01-13T21:55:09.506Z,1.23
2019-01-13T21:57:37.917Z,1.40
2019-01-13T22:00:09.766Z,1.00
2019-01-13T22:02:38.202Z,1.17
2019-01-13T22:05:08.845Z,0.83
2019-01-13T22:07:37.441Z,1.50
2019-01-13T22:10:12.181Z,1.20
2019-01-13T22:12:40.601Z,0.80
2019-01-13T22:15:11.854Z,1.10
2019-01-13T22:17:40.284Z,0.70
2019-01-13T22:20:11.593Z,0.60
2019-01-13T22:22:40.025Z,0.90
2019-01-13T22:25:09.792Z,0.70
2019-01-13T22:27:38.224Z,0.80
2019-01-13T22:30:12.209Z,1.50
2019-01-13T22:32:40.620Z,1.60
2019-01-13T22:35:09.277Z,0.90
2019-01-13T22:37:37.695Z,0.80
2019-01-13T22:40:11.506Z,1.10
2019-01-13T22:42:39.919Z,0.70
2019-01-13T22:45:10.981Z,1.20
2019-01-13T22:47:39.377Z,2.13
2019-01-13T22:50:10.713Z,1.23
2019-01-13T22:52:39.125Z,1.70
2019-01-13T22:55:08.884Z,2.17
2019-01-13T22:57:37.294Z,1.47
2019-01-13T23:00:16.382Z,2.53
2019-01-13T23:02:44.793Z,1.77
2019-01-13T23:05:13.207Z,1.43
2019-01-13T23:07:41.793Z,3.23
2019-01-13T23:10:10.204Z,2.23
2019-01-13T23:12:38.616Z,2.20
2019-01-13T23:15:07.184Z,1.57
2019-01-13T23:17:35.597Z,1.57
2019-01-13T23:20:06.151Z,1.50
2019-01-13T23:22:34.678Z,1.83
2019-01-13T23:25:03.153Z,2.60
2019-01-13T23:27:31.560Z,1.90
2019-01-13T23:29:59.996Z,2.57
2019-01-13T23:32:28.399Z,2.00
2019-01-13T23:34:56.821Z,1.77
2019-01-13T23:37:25.220Z,0.90
2019-01-13T23:39:53.654Z,1.30
2019-01-13T23:42:22.059Z,1.00
2019-01-13T23:44:50.482Z,1.50
2019-01-13T23:47:18.892Z,1.57
2019-01-13T23:49:47.301Z,1.47
2019-01-13T23:52:15.713Z,1.83
2019-01-13T23:54:44.134Z,1.03
2019-01-13T23:57:12.555Z,1.73
2019-01-13T23:59:40.967Z,1.27
